createdAt,value
2023-02-11T00:07:14.570Z,93.20
2023-02-11T00:11:05.683Z,98.40
2023-02-11T00:14:53.628Z,85.60
2023-02-11T00:18:41.360Z,84.70
2023-02-11T00:22:29.510Z,81.20
2023-02-11T00:26:20.150Z,90.30
2023-02-11T00:30:08.218Z,74.90
2023-02-11T00:33:58.552Z,94.80
2023-02-11T00:37:47.545Z,96.70
2023-02-11T00:41:34.602Z,102.50
2023-02-11T00:45:24.029Z,103.70
2023-02-11T00:49:11.657Z,95.90
2023-02-11T00:52:59.576Z,84.70
2023-02-11T00:56:09.168Z,90.10
2023-02-11T00:59:36.874Z,86.90
2023-02-11T01:03:24.323Z,98.70
2023-02-11T01:10:57.430Z,95.30
2023-02-11T01:14:45.326Z,84.00
2023-02-11T01:18:36.834Z,69.70
2023-02-11T01:22:24.187Z,88.10
2023-02-11T01:26:01.604Z,83.20
2023-02-11T01:29:50.340Z,82.40
2023-02-11T01:33:36.053Z,80.70
2023-02-11T01:36:52.390Z,70.80
2023-02-11T01:40:42.919Z,82.90
2023-02-11T01:44:32.464Z,74.20
2023-02-11T01:48:20.623Z,83.40
2023-02-11T01:59:50.689Z,82.10
2023-02-11T02:05:57.376Z,75.00
2023-02-11T02:08:51.767Z,67.90
2023-02-11T02:11:26.768Z,74.80
2023-02-11T02:13:54.071Z,59.90
2023-02-11T02:16:24.227Z,76.20
2023-02-11T02:19:28.685Z,66.50
2023-02-11T02:22:24.622Z,73.00
2023-02-11T02:25:14.105Z,65.20
2023-02-11T02:28:20.718Z,68.70
2023-02-11T02:31:46.666Z,60.70
2023-02-11T02:35:41.924Z,58.10
2023-02-11T02:39:41.961Z,66.80
2023-02-11T02:43:31.236Z,56.70
2023-02-11T02:47:22.165Z,66.50
2023-02-11T02:51:12.610Z,67.50
2023-02-11T02:55:07.177Z,69.00
2023-02-11T02:58:53.007Z,67.60
2023-02-11T03:06:53.641Z,64.10
2023-02-11T03:10:43.925Z,66.90
2023-02-11T03:14:32.202Z,52.30
2023-02-11T03:18:19.997Z,60.00
2023-02-11T03:22:08.071Z,51.20
2023-02-11T03:25:55.929Z,60.00
2023-02-11T03:29:57.000Z,64.80
2023-02-11T03:33:53.590Z,68.20
2023-02-11T03:37:51.687Z,61.70
2023-02-11T03:41:41.667Z,58.90
2023-02-11T03:45:33.247Z,48.80
2023-02-11T03:49:24.216Z,49.50
2023-02-11T03:53:14.629Z,59.70
2023-02-11T03:57:02.239Z,56.90
2023-02-11T04:00:54.586Z,59.80
2023-02-11T04:04:43.403Z,57.80
2023-02-11T04:08:30.966Z,59.10
2023-02-11T04:12:20.234Z,57.70
2023-02-11T04:16:10.125Z,60.50
2023-02-11T04:19:58.001Z,63.20
2023-02-11T04:23:46.054Z,58.20
2023-02-11T04:27:34.393Z,64.20
2023-02-11T04:31:22.641Z,56.30
2023-02-11T04:35:11.317Z,60.40
2023-02-11T04:39:00.017Z,62.20
2023-02-11T04:42:47.821Z,56.70
2023-02-11T04:46:36.485Z,63.20
2023-02-11T04:50:28.146Z,59.60
2023-02-11T04:54:16.335Z,62.50
2023-02-11T04:58:04.298Z,61.40
2023-02-11T05:01:53.242Z,67.10
2023-02-11T05:05:41.395Z,65.20
2023-02-11T05:09:30.962Z,69.60
2023-02-11T05:16:49.141Z,58.70
2023-02-11T05:20:36.960Z,56.40
2023-02-11T05:24:25.118Z,61.20
2023-02-11T05:28:15.614Z,53.90
2023-02-11T05:32:05.844Z,56.00
2023-02-11T05:39:39.041Z,61.40
2023-02-11T05:43:26.674Z,61.10
2023-02-11T05:47:14.855Z,62.30
2023-02-11T05:51:03.067Z,64.20
2023-02-11T05:54:50.977Z,50.10
2023-02-11T05:58:39.925Z,60.90
2023-02-11T06:02:28.148Z,68.60
2023-02-11T06:06:16.913Z,62.40
2023-02-11T06:10:05.705Z,49.50
2023-02-11T06:13:57.592Z,61.80
2023-02-11T06:17:44.108Z,48.40
2023-02-11T06:21:43.273Z,52.30
2023-02-11T06:25:23.453Z,50.10
2023-02-11T06:29:14.243Z,53.20
2023-02-11T06:33:02.865Z,54.90
2023-02-11T06:36:53.661Z,53.70
2023-02-11T06:40:48.084Z,51.90
2023-02-11T06:44:35.883Z,55.10
2023-02-11T06:48:26.963Z,51.70
2023-02-11T06:52:14.825Z,57.00
2023-02-11T06:56:02.655Z,48.10
2023-02-11T06:59:50.537Z,50.70
2023-02-11T07:03:42.255Z,58.60
2023-02-11T07:07:33.888Z,53.70
2023-02-11T07:11:19.256Z,61.30
2023-02-11T07:15:15.870Z,74.20
2023-02-11T07:22:48.553Z,76.50
2023-02-11T07:26:36.681Z,73.00
2023-02-11T07:30:26.536Z,73.80
2023-02-11T07:34:14.797Z,62.50
2023-02-11T07:38:05.043Z,60.40
2023-02-11T07:41:55.913Z,58.40
2023-02-11T07:45:45.999Z,63.00
2023-02-11T07:49:35.604Z,66.70
2023-02-11T07:53:28.819Z,61.30
2023-02-11T07:57:16.033Z,49.80
2023-02-11T08:01:05.190Z,49.10
2023-02-11T08:04:54.456Z,49.30
2023-02-11T08:08:43.823Z,58.10
2023-02-11T08:12:41.300Z,59.00
2023-02-11T08:16:25.574Z,59.20
2023-02-11T08:20:19.351Z,54.90
2023-02-11T08:24:02.721Z,58.50
2023-02-11T08:27:50.625Z,56.60
2023-02-11T08:31:39.892Z,55.00
2023-02-11T08:35:28.719Z,56.00
2023-02-11T08:39:20.781Z,53.10
2023-02-11T08:43:10.359Z,58.60
2023-02-11T08:46:58.029Z,60.30
2023-02-11T08:50:45.851Z,59.70
2023-02-11T08:54:36.300Z,55.00
2023-02-11T08:58:24.331Z,51.60
2023-02-11T09:02:21.237Z,53.00
2023-02-11T09:06:09.393Z,45.70
2023-02-11T09:13:22.366Z,43.20
2023-02-11T09:17:02.562Z,49.10
2023-02-11T09:20:29.412Z,47.10
2023-02-11T09:23:57.847Z,48.50
2023-02-11T09:30:54.263Z,46.50
2023-02-11T09:33:48.318Z,40.20
2023-02-11T09:36:19.914Z,43.20
2023-02-11T09:38:47.807Z,46.60
2023-02-11T09:41:33.261Z,43.50
2023-02-11T09:44:13.805Z,44.40
2023-02-11T09:47:41.466Z,47.80
2023-02-11T09:51:14.868Z,47.10
2023-02-11T09:55:03.048Z,47.50
2023-02-11T09:58:47.109Z,52.30
2023-02-11T10:02:34.479Z,41.00
2023-02-11T10:05:44.765Z,45.40
2023-02-11T10:08:56.770Z,36.80
2023-02-11T10:12:23.711Z,38.80
2023-02-11T10:15:12.080Z,36.70
2023-02-11T10:18:35.589Z,36.10
2023-02-11T10:22:16.412Z,42.80
2023-02-11T10:24:54.202Z,39.80
2023-02-11T10:27:52.458Z,41.80
2023-02-11T10:30:27.567Z,35.70
2023-02-11T10:33:46.044Z,39.30
2023-02-11T10:37:18.560Z,37.30
2023-02-11T10:40:30.090Z,37.40
2023-02-11T10:43:48.194Z,40.20
2023-02-11T10:47:35.511Z,41.60
2023-02-11T10:51:22.187Z,44.50
2023-02-11T10:54:55.130Z,43.80
2023-02-11T10:58:10.950Z,42.30
2023-02-11T11:01:47.197Z,47.20
2023-02-11T11:05:04.347Z,51.40
2023-02-11T11:07:57.572Z,51.20
2023-02-11T11:11:19.470Z,43.70
2023-02-11T11:14:40.766Z,47.20
2023-02-11T11:20:52.369Z,49.20
2023-02-11T11:23:55.925Z,61.30
2023-02-11T11:27:37.689Z,46.60
2023-02-11T11:30:45.585Z,49.90
2023-02-11T11:34:12.545Z,43.00
2023-02-11T11:36:57.570Z,49.70
2023-02-11T11:40:21.486Z,39.90
2023-02-11T11:43:28.404Z,43.20
2023-02-11T11:46:23.756Z,40.90
2023-02-11T11:49:35.523Z,38.90
2023-02-11T11:52:37.384Z,40.90
2023-02-11T11:55:34.237Z,41.80
2023-02-11T11:58:46.678Z,39.60
2023-02-11T12:03:02.983Z,43.80
2023-02-11T12:05:14.577Z,41.70
2023-02-11T12:08:33.623Z,43.50
2023-02-11T12:11:33.107Z,45.60
2023-02-11T12:14:35.851Z,47.00
2023-02-11T12:17:44.817Z,52.40
2023-02-11T12:20:41.060Z,56.30
2023-02-11T12:23:44.631Z,48.60
2023-02-11T12:27:05.761Z,50.00
2023-02-11T12:30:15.636Z,47.80
2023-02-11T12:33:51.832Z,46.60
2023-02-11T12:37:41.996Z,46.10
2023-02-11T12:41:03.232Z,51.10
2023-02-11T12:44:16.860Z,46.50
2023-02-11T12:47:36.117Z,47.20
2023-02-11T12:51:05.141Z,48.80
2023-02-11T12:53:57.138Z,52.90
2023-02-11T12:57:13.772Z,43.30
2023-02-11T13:00:03.585Z,50.30
2023-02-11T13:03:51.186Z,47.60
2023-02-11T13:07:36.065Z,65.20
2023-02-11T14:07:43.416Z,64.90
2023-02-11T14:10:41.675Z,64.80
2023-02-11T14:13:35.235Z,50.80
2023-02-11T14:16:35.321Z,61.30
2023-02-11T14:19:09.679Z,59.60
2023-02-11T14:21:42.909Z,60.20
2023-02-11T14:24:31.507Z,62.10
2023-02-11T14:27:06.414Z,51.80
2023-02-11T14:29:40.220Z,57.40
2023-02-11T14:32:29.040Z,66.50
2023-02-11T14:35:09.483Z,58.90
2023-02-11T14:37:51.077Z,55.50
2023-02-11T14:40:21.460Z,59.10
2023-02-11T14:42:48.875Z,56.20
2023-02-11T14:45:21.399Z,66.10
2023-02-11T14:48:04.018Z,59.30
2023-02-11T14:50:50.345Z,51.20
2023-02-11T14:53:21.960Z,53.60
2023-02-11T14:55:52.772Z,47.30
2023-02-11T14:58:21.587Z,61.40
2023-02-11T15:01:06.834Z,50.30
2023-02-11T15:03:36.016Z,58.80
2023-02-11T15:06:26.532Z,56.50
2023-02-11T15:09:15.403Z,56.50
2023-02-11T15:11:46.283Z,52.70
2023-02-11T15:14:27.536Z,52.10
2023-02-11T15:17:00.118Z,57.00
2023-02-11T15:19:34.664Z,56.10
2023-02-11T15:22:07.977Z,51.10
2023-02-11T15:24:36.074Z,56.40
2023-02-11T15:27:19.235Z,52.40
2023-02-11T15:29:49.950Z,44.10
2023-02-11T15:32:23.193Z,56.10
2023-02-11T15:34:53.518Z,53.90
2023-02-11T15:37:30.710Z,43.10
2023-02-11T15:40:29.364Z,56.20
2023-02-11T15:43:09.896Z,56.80
2023-02-11T15:45:40.883Z,54.10
2023-02-11T15:48:11.200Z,52.90
2023-02-11T15:50:41.137Z,57.90
2023-02-11T15:53:25.738Z,60.10
2023-02-11T15:55:58.905Z,44.00
2023-02-11T15:58:26.735Z,59.40
2023-02-11T16:01:00.204Z,60.80
2023-02-11T16:03:33.193Z,64.00
2023-02-11T16:06:19.843Z,48.30
2023-02-11T16:09:24.989Z,60.40
2023-02-11T16:11:54.338Z,56.30
2023-02-11T16:14:28.166Z,61.60
2023-02-11T16:17:34.264Z,66.50
2023-02-11T16:20:02.437Z,69.50
2023-02-11T16:22:35.935Z,65.20
2023-02-11T16:25:03.386Z,63.80
2023-02-11T16:27:41.751Z,66.80
2023-02-11T16:30:32.837Z,58.90
2023-02-11T16:33:00.229Z,67.00
2023-02-11T16:35:27.682Z,60.80
2023-02-11T16:37:59.778Z,65.50
2023-02-11T16:40:27.452Z,56.10
2023-02-11T16:42:56.505Z,57.60
2023-02-11T16:45:23.612Z,55.90
2023-02-11T16:47:50.952Z,64.90
2023-02-11T16:50:25.945Z,75.10
2023-02-11T16:52:54.220Z,71.50
2023-02-11T16:55:22.258Z,58.10
2023-02-11T16:57:50.028Z,71.30
2023-02-11T17:00:18.634Z,67.00
2023-02-11T17:02:48.832Z,73.00
2023-02-11T17:05:20.690Z,74.50
2023-02-11T17:07:47.844Z,72.60
2023-02-11T17:10:17.661Z,72.90
2023-02-11T17:12:45.701Z,64.60
2023-02-11T17:15:12.598Z,66.40
2023-02-11T17:17:39.689Z,82.70
2023-02-11T17:20:11.287Z,85.50
2023-02-11T17:22:38.646Z,79.80
2023-02-11T17:25:07.074Z,75.00
2023-02-11T17:27:35.107Z,74.90
2023-02-11T17:30:02.120Z,84.70
2023-02-11T17:32:29.210Z,69.00
2023-02-11T17:34:56.767Z,72.40
2023-02-11T17:37:24.661Z,61.60
2023-02-11T17:39:51.887Z,75.40
2023-02-11T17:42:22.335Z,82.90
2023-02-11T17:44:49.541Z,79.90
2023-02-11T17:47:16.654Z,91.70
2023-02-11T17:49:44.892Z,78.80
2023-02-11T17:52:12.146Z,71.30
2023-02-11T17:54:39.434Z,79.20
2023-02-11T17:57:07.106Z,80.60
2023-02-11T17:59:37.026Z,77.00
2023-02-11T18:02:05.236Z,77.60
2023-02-11T18:04:32.901Z,82.70
2023-02-11T18:07:00.086Z,86.60
2023-02-11T18:09:27.334Z,87.10
2023-02-11T18:11:55.429Z,80.30
2023-02-11T18:14:23.988Z,78.50
2023-02-11T18:16:52.853Z,64.40
2023-02-11T18:19:21.765Z,69.80
2023-02-11T18:21:50.832Z,77.10
2023-02-11T18:24:18.759Z,67.50
2023-02-11T18:26:49.517Z,73.60
2023-02-11T18:29:16.551Z,68.10
2023-02-11T18:31:43.758Z,71.40
2023-02-11T18:34:12.494Z,73.60
2023-02-11T18:36:39.716Z,75.10
2023-02-11T18:39:06.966Z,69.10
2023-02-11T18:41:34.007Z,68.20
2023-02-11T18:44:03.508Z,52.50
2023-02-11T18:46:31.784Z,62.40
2023-02-11T18:49:03.244Z,51.50
2023-02-11T18:51:32.796Z,53.50
2023-02-11T18:54:02.999Z,58.50
2023-02-11T18:56:31.899Z,64.00
2023-02-11T18:59:01.602Z,56.70
2023-02-11T19:01:34.762Z,57.60
2023-02-11T19:04:04.709Z,48.90
2023-02-11T19:06:35.574Z,46.10
2023-02-11T19:09:06.430Z,45.30
2023-02-11T19:11:54.432Z,43.20
2023-02-11T19:14:28.253Z,48.90
2023-02-11T19:16:58.786Z,46.20
2023-02-11T19:19:29.082Z,38.40
2023-02-11T19:21:57.401Z,39.30
2023-02-11T19:24:26.245Z,33.40
2023-02-11T19:26:57.413Z,39.40
2023-02-11T19:29:26.132Z,41.60
2023-02-11T19:31:53.480Z,42.00
2023-02-11T19:34:22.301Z,37.30
2023-02-11T19:36:51.056Z,34.00
2023-02-11T19:39:19.274Z,31.00
2023-02-11T19:41:46.778Z,27.80
2023-02-11T19:44:14.720Z,31.50
2023-02-11T19:46:42.867Z,30.20
2023-02-11T19:49:11.942Z,26.70
2023-02-11T19:51:39.735Z,25.60
2023-02-11T19:54:11.377Z,23.10
2023-02-11T19:56:39.087Z,26.40
2023-02-11T19:59:09.287Z,26.80
2023-02-11T20:01:37.890Z,27.20
2023-02-11T20:04:05.759Z,25.00
2023-02-11T20:06:35.035Z,21.50
2023-02-11T20:09:07.175Z,21.30
2023-02-11T20:11:35.598Z,19.90
2023-02-11T20:14:03.677Z,20.10
2023-02-11T20:16:46.792Z,18.80
2023-02-11T20:19:22.097Z,22.00
2023-02-11T20:21:53.293Z,23.20
2023-02-11T20:24:21.173Z,18.30
2023-02-11T20:26:49.631Z,20.80
2023-02-11T20:29:19.152Z,22.90
2023-02-11T20:31:47.102Z,17.80
2023-02-11T20:34:14.174Z,24.40
2023-02-11T20:36:41.829Z,23.90
2023-02-11T20:39:11.234Z,23.00
2023-02-11T20:41:41.175Z,17.60
2023-02-11T20:44:11.938Z,20.70
2023-02-11T20:46:42.814Z,18.20
2023-02-11T20:49:15.595Z,19.00
2023-02-11T20:51:43.302Z,22.10
2023-02-11T20:54:17.150Z,23.30
2023-02-11T20:56:47.812Z,23.10
2023-02-11T20:59:15.474Z,23.50
2023-02-11T21:01:45.365Z,24.00
2023-02-11T21:04:19.565Z,24.50
2023-02-11T21:06:50.866Z,23.30
2023-02-11T21:09:20.162Z,22.50
2023-02-11T21:11:54.727Z,20.10
2023-02-11T21:14:24.282Z,20.40
2023-02-11T21:16:52.383Z,23.60
2023-02-11T21:19:20.434Z,23.30
2023-02-11T21:21:48.377Z,24.50
2023-02-11T21:24:15.524Z,21.60
2023-02-11T21:26:43.349Z,41.40
2023-02-11T21:29:10.727Z,20.00
2023-02-11T21:31:38.383Z,21.00
2023-02-11T21:34:06.490Z,20.00
2023-02-11T21:36:34.254Z,19.40
2023-02-11T21:39:02.252Z,36.60
2023-02-11T21:41:29.623Z,19.70
2023-02-11T21:43:57.085Z,18.90
2023-02-11T21:46:24.576Z,108.10
2023-02-11T21:48:51.968Z,37.60
2023-02-11T21:51:22.586Z,31.90
2023-02-11T21:53:54.139Z,39.50
2023-02-11T21:56:22.258Z,22.40
2023-02-11T21:58:53.757Z,22.20
2023-02-11T22:01:24.315Z,18.30
2023-02-11T22:03:51.352Z,26.20
2023-02-11T22:06:22.196Z,25.00
2023-02-11T22:08:50.459Z,18.50
2023-02-11T22:11:18.516Z,26.60
2023-02-11T22:13:46.355Z,35.30
2023-02-11T22:16:19.539Z,27.80
2023-02-11T22:18:46.806Z,25.80
2023-02-11T22:21:19.556Z,21.00
2023-02-11T22:23:47.348Z,27.30
2023-02-11T22:26:20.442Z,27.00
2023-02-11T22:28:49.214Z,26.30
2023-02-11T22:31:22.586Z,23.90
2023-02-11T22:33:50.457Z,20.90
2023-02-11T22:36:19.210Z,29.20
2023-02-11T22:38:46.476Z,20.10
2023-02-11T22:41:14.869Z,21.10
2023-02-11T22:43:43.791Z,20.10
2023-02-11T22:46:14.479Z,22.30
2023-02-11T22:48:42.279Z,19.30
2023-02-11T22:51:24.717Z,17.70
2023-02-11T22:53:53.942Z,13.80
2023-02-11T22:56:21.314Z,15.40
2023-02-11T22:58:49.000Z,16.50
2023-02-11T23:01:16.830Z,15.00
2023-02-11T23:03:44.682Z,15.40
2023-02-11T23:06:13.519Z,13.40
2023-02-11T23:08:43.318Z,12.10
2023-02-11T23:11:13.958Z,11.80
2023-02-11T23:13:42.593Z,12.30
2023-02-11T23:16:13.471Z,12.90
2023-02-11T23:18:42.418Z,12.60
2023-02-11T23:21:14.195Z,10.60
2023-02-11T23:23:41.621Z,11.20
2023-02-11T23:26:13.721Z,13.30
2023-02-11T23:28:41.921Z,12.10
2023-02-11T23:31:23.225Z,15.30
2023-02-11T23:33:51.548Z,10.90
2023-02-11T23:36:20.806Z,10.60
2023-02-11T23:38:48.707Z,10.20
2023-02-11T23:41:16.750Z,18.90
2023-02-11T23:43:44.460Z,26.70
2023-02-11T23:46:11.919Z,14.40
2023-02-11T23:48:40.816Z,18.70
2023-02-11T23:51:10.693Z,26.80
2023-02-11T23:53:39.279Z,13.40
2023-02-11T23:56:11.837Z,14.00
2023-02-11T23:58:38.766Z,24.10
